Indian Springs, Mississippi
Current Conditions -  °F | °C
As of 11:53 AM on Monday 26 Jan 2015 (Local Time) from KHBG Reporting Station
Clear Clear  
Wind Chill: 54°   Ceiling: Unl
Heat Index: 54°   Visibility: 10mi
Dew Point: 36°   Wind: 12mph
Humidity: 51%   Direction: 310°NW
Pressure: 30.1"   Gusts: NA
Location:  31.1996°N, 89.2694°W
Report Text: KHBG 261753Z AUTO 31010KT 10SM CLR 12/02 A3010 RMK AO2 SLP193 T01220022 10122 20067 50000
Loading
Personal Weather Stations






























Interactive Weather Map New forecast layout! Learn more

10-Day Weather Forecast

Advertisements
Track Severe Weather on mobile